Time;durP1;ratioP1;P1;durP2;ratioP2;P2;SDS_P1;SDS_P2;PMS_P1;PMS_P2;Temp;Humidity;BMP_temperature;BMP_pressure;BME280_temperature;BME280_humidity;BME280_pressure;Samples;Min_cycle;Max_cycle;Signal;HPM_P1;HPM_P2
2023/04/17 00:01:23;;;;;;;6.15;5.00;;;;;;;-145.41;100.00;58600.66;4975437;28;20097;-71
2023/04/17 00:03:51;;;;;;;7.28;5.97;;;;;;;-145.41;100.00;58600.66;4977898;28;20031;-71
2023/04/17 00:06:17;;;;;;;6.72;4.95;;;;;;;-145.41;100.00;58600.66;4972265;28;20118;-71
2023/04/17 00:08:43;;;;;;;6.13;4.82;;;;;;;-145.41;100.00;58600.66;4972140;28;20497;-71
2023/04/17 00:11:08;;;;;;;5.60;4.22;;;;;;;-145.41;100.00;58600.66;4972174;28;20041;-71
2023/04/17 00:13:33;;;;;;;5.82;4.63;;;;;;;-145.41;100.00;58600.66;4972294;28;20050;-71
2023/04/17 00:15:59;;;;;;;7.85;5.30;;;;;;;-145.41;100.00;58600.66;4972352;28;20126;-71
2023/04/17 00:18:24;;;;;;;7.68;5.57;;;;;;;-145.41;100.00;58600.66;4972098;28;20489;-71
2023/04/17 00:20:50;;;;;;;6.25;4.63;;;;;;;-145.41;100.00;58600.66;4972066;28;20030;-71
2023/04/17 00:23:15;;;;;;;6.32;5.03;;;;;;;-145.41;100.00;58600.66;4972321;28;20492;-71
2023/04/17 00:25:40;;;;;;;5.88;4.25;;;;;;;-145.41;100.00;58600.66;4972254;28;20035;-71
2023/04/17 00:30:42;;;;;;;6.82;5.35;;;;;;;-145.41;100.00;58600.66;4981199;28;20464;-72
2023/04/17 00:33:08;;;;;;;5.90;4.55;;;;;;;-145.41;100.00;58600.66;4979950;28;20035;-72
2023/04/17 00:35:33;;;;;;;6.80;4.60;;;;;;;-145.41;100.00;58600.66;4982604;28;20034;-72
2023/04/17 00:37:58;;;;;;;6.22;4.85;;;;;;;-145.41;100.00;58600.66;4979336;28;20047;-72
2023/04/17 00:40:24;;;;;;;6.00;4.53;;;;;;;-145.41;100.00;58600.66;4960843;28;20040;-72
2023/04/17 00:42:52;;;;;;;6.65;5.10;;;;;;;-145.41;100.00;58600.66;4963096;28;20037;-71
2023/04/17 00:45:21;;;;;;;5.72;4.53;;;;;;;-145.41;100.00;58600.66;4966181;28;20556;-72
2023/04/17 00:47:48;;;;;;;5.63;4.07;;;;;;;-145.41;100.00;58600.66;4963099;28;20022;-72
2023/04/17 00:50:14;;;;;;;5.72;4.43;;;;;;;-145.41;100.00;58600.66;4966744;28;20049;-72
2023/04/17 00:52:40;;;;;;;7.05;3.70;;;;;;;-145.41;100.00;58600.66;4964859;28;20039;-72
2023/04/17 00:55:06;;;;;;;5.93;4.28;;;;;;;-145.41;100.00;58600.66;4970966;28;20046;-72
2023/04/17 00:57:33;;;;;;;5.25;3.95;;;;;;;-145.41;100.00;58600.66;4965975;28;20054;-72
2023/04/17 00:59:58;;;;;;;7.13;4.70;;;;;;;-145.41;100.00;58600.66;4965366;28;20050;-72
2023/04/17 01:02:24;;;;;;;5.45;4.22;;;;;;;-145.41;100.00;58600.66;4967018;28;20042;-72
2023/04/17 01:04:49;;;;;;;6.10;4.13;;;;;;;-145.41;100.00;58600.66;4949190;28;20035;-72
2023/04/17 01:07:15;;;;;;;6.00;4.30;;;;;;;-145.41;100.00;58600.66;4963897;28;20058;-72
2023/04/17 01:09:40;;;;;;;5.80;4.00;;;;;;;-145.41;100.00;58600.66;4964852;28;20034;-72
2023/04/17 01:12:23;;;;;;;6.10;4.53;;;;;;;-145.41;100.00;58600.66;4963638;28;20035;-72
2023/04/17 01:14:53;;;;;;;5.25;3.75;;;;;;;-145.41;100.00;58600.66;4961168;28;20062;-72
2023/04/17 01:17:19;;;;;;;5.90;4.40;;;;;;;-145.41;100.00;58600.66;4964512;28;20054;-72
2023/04/17 01:19:45;;;;;;;5.05;3.88;;;;;;;-145.41;100.00;58600.66;4949460;28;20483;-72
2023/04/17 01:22:11;;;;;;;4.78;3.28;;;;;;;-145.41;100.00;58600.66;4963779;28;20041;-74
2023/04/17 01:24:37;;;;;;;6.80;4.32;;;;;;;-145.41;100.00;58600.66;4939620;28;20039;-74
2023/04/17 01:27:03;;;;;;;7.30;4.68;;;;;;;-145.41;100.00;58600.66;4964756;28;20130;-75
2023/04/17 01:29:29;;;;;;;5.07;3.65;;;;;;;-145.41;100.00;58600.66;4962826;28;20082;-74
2023/04/17 01:31:55;;;;;;;6.03;4.32;;;;;;;-145.41;100.00;58600.66;4962642;28;20041;-75
2023/04/17 01:34:21;;;;;;;6.07;4.75;;;;;;;-145.41;100.00;58600.66;4948978;28;20634;-75
2023/04/17 01:36:46;;;;;;;6.32;4.20;;;;;;;-145.41;100.00;58600.66;4969059;28;20497;-74
2023/04/17 01:39:12;;;;;;;6.10;4.30;;;;;;;-145.41;100.00;58600.66;4963429;28;20039;-74
2023/04/17 01:41:37;;;;;;;8.15;5.63;;;;;;;-145.41;100.00;58600.66;4969177;28;20039;-74
2023/04/17 01:44:02;;;;;;;8.57;6.00;;;;;;;-145.41;100.00;58600.66;4965868;28;20038;-74
2023/04/17 01:46:28;;;;;;;5.35;4.18;;;;;;;-145.41;100.00;58600.66;4962435;28;20453;-74
2023/04/17 01:48:53;;;;;;;6.80;5.10;;;;;;;-145.41;100.00;58600.66;4949125;28;20054;-74
2023/04/17 01:51:19;;;;;;;9.75;5.82;;;;;;;-145.41;100.00;58600.66;4961934;28;20035;-74
2023/04/17 01:53:44;;;;;;;7.90;5.40;;;;;;;-145.41;100.00;58600.66;4971095;28;20460;-74
2023/04/17 01:56:10;;;;;;;6.90;4.97;;;;;;;-145.41;100.00;58600.66;4963202;28;20039;-74
2023/04/17 01:58:35;;;;;;;6.47;4.82;;;;;;;-145.41;100.00;58600.66;4957989;28;20031;-74
2023/04/17 02:01:01;;;;;;;6.63;5.05;;;;;;;-145.41;100.00;58600.66;4965098;28;20085;-74
2023/04/17 02:03:26;;;;;;;6.55;4.50;;;;;;;-145.41;100.00;58600.66;4961965;28;20055;-74
2023/04/17 02:05:52;;;;;;;7.03;5.13;;;;;;;-145.41;100.00;58600.66;4966589;28;20142;-74
2023/04/17 02:08:18;;;;;;;6.88;4.53;;;;;;;-145.41;100.00;58600.66;4963008;28;20039;-74
2023/04/17 02:10:43;;;;;;;5.80;4.35;;;;;;;-145.41;100.00;58600.66;4968997;28;20030;-74
2023/04/17 02:13:10;;;;;;;5.95;4.28;;;;;;;-145.41;100.00;58600.66;4962829;28;20035;-74
2023/04/17 02:15:38;;;;;;;9.77;4.93;;;;;;;-145.41;100.00;58600.66;4965824;28;20413;-74
2023/04/17 02:18:07;;;;;;;5.72;4.20;;;;;;;-145.41;100.00;58600.66;4962719;28;20043;-75
2023/04/17 02:20:34;;;;;;;5.50;3.95;;;;;;;-145.41;100.00;58600.66;4963123;28;20034;-75
2023/04/17 02:23:01;;;;;;;5.88;4.22;;;;;;;-145.41;100.00;58600.66;4936982;28;20031;-75
2023/04/17 02:25:29;;;;;;;5.55;3.75;;;;;;;-145.41;100.00;58600.66;4947929;28;20035;-75
2023/04/17 02:27:55;;;;;;;6.88;4.90;;;;;;;-145.41;100.00;58600.66;4946289;28;20687;-74
2023/04/17 02:30:21;;;;;;;6.47;4.40;;;;;;;-145.41;100.00;58600.66;4965138;28;20030;-74
2023/04/17 02:32:50;;;;;;;6.70;4.30;;;;;;;-145.41;100.00;58600.66;4948939;28;20122;-74
2023/04/17 02:35:16;;;;;;;4.72;3.42;;;;;;;-145.41;100.00;58600.66;4961223;28;20035;-74
2023/04/17 02:37:42;;;;;;;5.35;4.03;;;;;;;-145.41;100.00;58600.66;4957125;28;20093;-74
2023/04/17 02:40:08;;;;;;;6.63;3.50;;;;;;;-145.41;100.00;58600.66;4964481;28;20097;-74
2023/04/17 02:42:34;;;;;;;5.32;3.58;;;;;;;-145.41;100.00;58600.66;4961265;28;20031;-74
2023/04/17 02:45:03;;;;;;;4.60;2.92;;;;;;;-145.41;100.00;58600.66;4964789;28;20041;-75
2023/04/17 02:47:28;;;;;;;5.65;3.55;;;;;;;-145.41;100.00;58600.66;4947696;28;20034;-74
2023/04/17 02:49:55;;;;;;;4.82;3.20;;;;;;;-145.41;100.00;58600.66;4949249;28;20126;-74
2023/04/17 02:52:21;;;;;;;4.80;3.33;;;;;;;-145.41;100.00;58600.66;4962084;28;20475;-75
2023/04/17 02:54:47;;;;;;;4.97;3.20;;;;;;;-145.41;100.00;58600.66;4946862;28;20037;-74
2023/04/17 02:57:13;;;;;;;6.57;3.38;;;;;;;-145.41;100.00;58600.66;4946381;28;20114;-74
2023/04/17 02:59:38;;;;;;;5.55;3.65;;;;;;;-145.41;100.00;58600.66;4963775;28;20042;-74
2023/04/17 03:02:04;;;;;;;5.55;3.22;;;;;;;-145.41;100.00;58600.66;4963071;28;20045;-74
2023/04/17 03:04:33;;;;;;;5.28;3.38;;;;;;;-145.41;100.00;58600.66;4969473;28;20126;-74
2023/04/17 03:06:59;;;;;;;4.85;3.55;;;;;;;-145.41;100.00;58600.66;4967107;28;20038;-74
2023/04/17 03:09:24;;;;;;;5.15;3.33;;;;;;;-145.41;100.00;58600.66;4964076;28;20037;-75
2023/04/17 03:11:50;;;;;;;4.25;2.35;;;;;;;-145.41;100.00;58600.66;4966755;28;20044;-75
2023/04/17 03:14:16;;;;;;;4.88;3.08;;;;;;;-145.41;100.00;58600.66;4962003;28;20062;-74
2023/04/17 03:16:41;;;;;;;4.13;2.70;;;;;;;-145.41;100.00;58600.66;4963395;28;20027;-75
2023/04/17 03:19:07;;;;;;;4.68;2.60;;;;;;;-145.41;100.00;58600.66;4964909;28;20509;-74
2023/04/17 03:21:33;;;;;;;4.63;2.90;;;;;;;-145.41;100.00;58600.66;4960161;28;20493;-75
2023/04/17 03:23:59;;;;;;;4.22;2.80;;;;;;;-145.41;100.00;58600.66;4964284;28;20038;-74
2023/04/17 03:26:24;;;;;;;4.20;2.60;;;;;;;-145.41;100.00;58600.66;4960577;28;20035;-75
2023/04/17 03:28:50;;;;;;;4.05;2.38;;;;;;;-145.41;100.00;58600.66;4963301;28;20129;-74
2023/04/17 03:31:15;;;;;;;3.63;2.17;;;;;;;-145.41;100.00;58600.66;4964036;28;20077;-75
2023/04/17 03:33:41;;;;;;;4.20;2.50;;;;;;;-145.41;100.00;58600.66;4962977;28;20057;-74
2023/04/17 03:36:07;;;;;;;3.83;2.45;;;;;;;-145.41;100.00;58600.66;4963960;28;20034;-75
2023/04/17 03:38:34;;;;;;;4.40;2.60;;;;;;;-145.41;100.00;58600.66;4956643;28;20042;-74
2023/04/17 03:41:01;;;;;;;3.67;2.38;;;;;;;-145.41;100.00;58600.66;4947702;28;20109;-74
2023/04/17 03:43:26;;;;;;;4.13;2.22;;;;;;;-145.41;100.00;58600.66;4963226;28;20081;-74
2023/04/17 03:45:51;;;;;;;3.38;2.25;;;;;;;-145.41;100.00;58600.66;4951646;28;20039;-75
2023/04/17 03:48:17;;;;;;;3.10;1.95;;;;;;;-145.41;100.00;58600.66;4957459;28;20105;-74
2023/04/17 03:50:44;;;;;;;3.42;2.20;;;;;;;-145.41;100.00;58600.66;4967657;28;20521;-75
2023/04/17 03:53:10;;;;;;;3.38;2.13;;;;;;;-145.41;100.00;58600.66;4963991;28;20568;-74
2023/04/17 03:55:38;;;;;;;4.20;2.10;;;;;;;-145.41;100.00;58600.66;4964833;28;20062;-74
2023/04/17 03:58:03;;;;;;;3.42;2.05;;;;;;;-145.41;100.00;58600.66;4963665;28;20065;-74
2023/04/17 04:00:31;;;;;;;3.72;2.60;;;;;;;-145.41;100.00;58600.66;4967988;28;20094;-74
2023/04/17 04:03:01;;;;;;;3.92;2.25;;;;;;;-145.41;100.00;58600.66;4963594;28;20046;-74
2023/04/17 04:05:33;;;;;;;4.72;2.42;;;;;;;-145.41;100.00;58600.66;4963767;28;20462;-74
2023/04/17 04:07:59;;;;;;;3.50;2.00;;;;;;;-145.41;100.00;58600.66;4954805;28;20074;-72
2023/04/17 04:10:31;;;;;;;3.40;2.00;;;;;;;-145.41;100.00;58600.66;4963575;28;20126;-73
2023/04/17 04:12:57;;;;;;;6.68;2.17;;;;;;;-145.41;100.00;58600.66;4963151;28;20118;-72
2023/04/17 04:15:24;;;;;;;3.85;2.60;;;;;;;-145.41;100.00;58600.66;4961128;28;20512;-72
2023/04/17 04:17:53;;;;;;;3.63;2.20;;;;;;;-145.41;100.00;58600.66;4961172;28;20062;-73
2023/04/17 04:20:21;;;;;;;5.03;3.15;;;;;;;-145.41;100.00;58600.66;4946050;28;20066;-72
2023/04/17 04:22:47;;;;;;;5.05;3.22;;;;;;;-145.41;100.00;58600.66;4961134;28;20077;-73
2023/04/17 04:25:15;;;;;;;4.47;2.72;;;;;;;-145.41;100.00;58600.66;4960819;28;20134;-73
2023/04/17 04:27:48;;;;;;;6.40;4.43;;;;;;;-145.41;100.00;58600.66;4958442;28;20035;-73
2023/04/17 04:30:18;;;;;;;4.75;2.40;;;;;;;-145.41;100.00;58600.66;4948431;28;20157;-72
2023/04/17 04:32:45;;;;;;;3.30;2.25;;;;;;;-145.41;100.00;58600.66;4964252;28;20031;-73
2023/04/17 04:35:12;;;;;;;4.22;2.40;;;;;;;-145.41;100.00;58600.66;4968828;28;20027;-73
2023/04/17 04:37:38;;;;;;;4.07;2.70;;;;;;;-145.41;100.00;58600.66;4945434;28;20035;-73
2023/04/17 04:40:09;;;;;;;4.80;3.40;;;;;;;-145.41;100.00;58600.66;4957142;28;20028;-73
2023/04/17 04:42:48;;;;;;;3.55;2.35;;;;;;;-145.41;100.00;58600.66;4969395;28;20078;-72
2023/04/17 04:45:19;;;;;;;3.85;2.40;;;;;;;-145.41;100.00;58600.66;4966659;28;20035;-73
2023/04/17 04:47:44;;;;;;;4.03;2.40;;;;;;;-145.41;100.00;58600.66;4965556;28;20094;-73
2023/04/17 04:50:10;;;;;;;3.85;2.28;;;;;;;-145.41;100.00;58600.66;4964947;28;20085;-73
2023/04/17 04:52:36;;;;;;;8.60;5.95;;;;;;;-145.41;100.00;58600.66;4963324;28;20034;-72
2023/04/17 04:55:08;;;;;;;5.50;2.90;;;;;;;-145.41;100.00;58600.66;4966241;28;20058;-72
2023/04/17 04:57:37;;;;;;;3.60;2.17;;;;;;;-145.41;100.00;58600.66;4953690;28;20139;-73
2023/04/17 05:00:05;;;;;;;3.97;2.20;;;;;;;-145.41;100.00;58600.66;4966190;28;20170;-72
2023/04/17 05:02:36;;;;;;;4.70;2.95;;;;;;;-145.41;100.00;58600.66;4959508;28;20057;-72
2023/04/17 05:05:03;;;;;;;4.40;3.33;;;;;;;-145.41;100.00;58600.66;4963970;28;20034;-73
2023/04/17 05:07:31;;;;;;;4.63;2.92;;;;;;;-145.41;100.00;58600.66;4963754;28;20045;-73
2023/04/17 05:09:57;;;;;;;4.10;2.88;;;;;;;-145.41;100.00;58600.66;4964811;28;20039;-73
2023/04/17 05:12:22;;;;;;;5.07;3.40;;;;;;;-145.41;100.00;58600.66;4964047;28;20031;-73
2023/04/17 05:14:48;;;;;;;4.57;3.10;;;;;;;-145.41;100.00;58600.66;4965999;28;20027;-72
2023/04/17 05:17:16;;;;;;;4.47;2.90;;;;;;;-145.41;100.00;58600.66;4951274;28;20023;-72
2023/04/17 05:19:41;;;;;;;4.57;3.15;;;;;;;-145.41;100.00;58600.66;4965979;28;20498;-73
2023/04/17 05:22:09;;;;;;;4.25;3.20;;;;;;;-145.41;100.00;58600.66;4962367;28;20506;-72
2023/04/17 05:24:42;;;;;;;3.90;2.67;;;;;;;-145.41;100.00;58600.66;4954699;29;20042;-73
2023/04/17 05:27:08;;;;;;;4.60;2.58;;;;;;;-145.41;100.00;58600.66;4965758;28;20034;-72
2023/04/17 05:29:36;;;;;;;3.88;2.78;;;;;;;-145.41;100.00;58600.66;4957957;28;20461;-71
2023/04/17 05:32:01;;;;;;;5.07;3.15;;;;;;;-145.41;100.00;58600.66;4963259;28;20035;-72
2023/04/17 05:34:48;;;;;;;4.57;3.08;;;;;;;-145.41;100.00;58600.66;4963656;28;20031;-73
2023/04/17 05:37:16;;;;;;;5.40;3.40;;;;;;;-145.41;100.00;58600.66;4969536;28;20030;-72
2023/04/17 05:39:41;;;;;;;5.40;2.90;;;;;;;-145.41;100.00;58600.66;4951835;28;20118;-73
2023/04/17 05:42:06;;;;;;;5.95;3.30;;;;;;;-145.41;100.00;58600.66;4965759;28;20038;-72
2023/04/17 05:44:32;;;;;;;5.10;3.20;;;;;;;-145.41;100.00;58600.66;4964904;28;20039;-72
2023/04/17 05:46:59;;;;;;;6.78;2.90;;;;;;;-145.41;100.00;58600.66;4959343;28;20134;-73
2023/04/17 05:49:25;;;;;;;4.47;2.80;;;;;;;-145.41;100.00;58600.66;4962502;28;20039;-73
2023/04/17 05:51:51;;;;;;;4.68;2.78;;;;;;;-145.41;100.00;58600.66;4970349;28;20026;-72
2023/04/17 05:54:17;;;;;;;5.45;2.75;;;;;;;-145.41;100.00;58600.66;4968976;28;20057;-72
2023/04/17 05:56:42;;;;;;;4.55;2.70;;;;;;;-145.41;100.00;58600.66;4965223;28;20178;-73
2023/04/17 05:59:08;;;;;;;4.35;3.00;;;;;;;-145.41;100.00;58600.66;4949398;28;20034;-73
2023/04/17 06:01:35;;;;;;;4.32;2.55;;;;;;;-145.41;100.00;58600.66;4963909;28;20054;-72
2023/04/17 06:04:00;;;;;;;4.82;2.30;;;;;;;-145.41;100.00;58600.66;4948437;28;20047;-73
2023/04/17 06:06:26;;;;;;;4.90;2.85;;;;;;;-145.41;100.00;58600.66;4968954;28;20030;-73
2023/04/17 06:08:53;;;;;;;4.95;2.95;;;;;;;-145.41;100.00;58600.66;4962785;28;20035;-72
2023/04/17 06:11:20;;;;;;;4.10;2.72;;;;;;;-145.41;100.00;58600.66;4967368;28;20035;-73
2023/04/17 06:13:46;;;;;;;6.63;3.40;;;;;;;-145.41;100.00;58600.66;4947500;28;20104;-73
2023/04/17 06:16:14;;;;;;;5.28;3.67;;;;;;;-145.41;100.00;58600.66;4964270;28;20129;-72
2023/04/17 06:18:40;;;;;;;4.82;3.47;;;;;;;-145.41;100.00;58600.66;4968529;28;20190;-72
2023/04/17 06:21:06;;;;;;;5.13;3.60;;;;;;;-145.41;100.00;58600.66;4967492;28;20089;-72
2023/04/17 06:23:32;;;;;;;5.63;3.95;;;;;;;-145.41;100.00;58600.66;4967933;28;20043;-72
2023/04/17 06:25:57;;;;;;;6.20;3.95;;;;;;;-145.41;100.00;58600.66;4966705;28;20109;-71
2023/04/17 06:28:22;;;;;;;5.80;3.95;;;;;;;-145.41;100.00;58600.66;4948337;28;20489;-73
2023/04/17 06:30:51;;;;;;;5.88;3.97;;;;;;;-145.41;100.00;58600.66;4961412;28;20031;-72
2023/04/17 06:33:17;;;;;;;5.03;3.80;;;;;;;-145.41;100.00;58600.66;4963310;28;20493;-72
2023/04/17 06:35:43;;;;;;;7.40;4.28;;;;;;;-145.41;100.00;58600.66;4961564;28;20039;-72
2023/04/17 06:38:19;;;;;;;4.65;3.25;;;;;;;-145.41;100.00;58600.66;4966952;28;20035;-72
2023/04/17 06:40:45;;;;;;;6.38;3.80;;;;;;;-145.41;100.00;58600.66;4962265;28;20035;-72
2023/04/17 06:43:11;;;;;;;5.85;3.65;;;;;;;-145.41;100.00;58600.66;4964893;28;20030;-72
2023/04/17 06:45:41;;;;;;;4.63;3.17;;;;;;;-145.41;100.00;58600.66;4957422;28;20035;-72
2023/04/17 06:48:06;;;;;;;4.97;3.50;;;;;;;-145.41;100.00;58600.66;4959867;28;20043;-73
2023/04/17 06:50:31;;;;;;;5.53;3.75;;;;;;;-145.41;100.00;58600.66;4950821;28;20047;-72
2023/04/17 06:52:57;;;;;;;5.82;3.47;;;;;;;-145.41;100.00;58600.66;4969087;28;20129;-73
2023/04/17 06:55:22;;;;;;;6.70;3.25;;;;;;;-145.41;100.00;58600.66;4964690;28;20082;-72
2023/04/17 06:57:47;;;;;;;5.85;3.70;;;;;;;-145.41;100.00;58600.66;4965820;28;20031;-72
2023/04/17 07:00:13;;;;;;;6.90;3.40;;;;;;;-145.41;100.00;58600.66;4966419;28;20557;-73
2023/04/17 07:02:39;;;;;;;4.95;3.15;;;;;;;-145.41;100.00;58600.66;4970338;28;20482;-73
2023/04/17 07:05:05;;;;;;;8.10;3.13;;;;;;;-145.41;100.00;58600.66;4965733;28;20399;-73
2023/04/17 07:07:33;;;;;;;4.63;2.90;;;;;;;-145.41;100.00;58600.66;4965029;28;20055;-72
2023/04/17 07:09:59;;;;;;;4.65;3.20;;;;;;;-145.41;100.00;58600.66;4965192;28;20039;-72
2023/04/17 07:12:25;;;;;;;5.07;3.10;;;;;;;-145.41;100.00;58600.66;4960991;28;20066;-72
2023/04/17 07:14:50;;;;;;;5.28;2.70;;;;;;;-145.41;100.00;58600.66;4962127;28;20460;-73
2023/04/17 07:17:16;;;;;;;4.18;2.50;;;;;;;-145.41;100.00;58600.66;4965074;28;20170;-73
2023/04/17 07:19:42;;;;;;;5.25;2.83;;;;;;;-145.41;100.00;58600.66;4965144;28;20566;-72
2023/04/17 07:22:08;;;;;;;4.63;2.50;;;;;;;-145.41;100.00;58600.66;4961394;28;20039;-72
2023/04/17 07:24:34;;;;;;;4.32;2.20;;;;;;;-145.41;100.00;58600.66;4966272;28;20508;-73
2023/04/17 07:27:03;;;;;;;4.20;2.28;;;;;;;-145.41;100.00;58600.66;4962044;28;20051;-72
2023/04/17 07:29:29;;;;;;;4.45;2.42;;;;;;;-145.41;100.00;58600.66;4964701;28;20113;-72
2023/04/17 07:31:54;;;;;;;5.82;2.63;;;;;;;-145.41;100.00;58600.66;4963605;28;20129;-72
2023/04/17 07:34:20;;;;;;;5.10;2.85;;;;;;;-145.41;100.00;58600.66;4962707;28;20039;-73
2023/04/17 07:36:46;;;;;;;6.45;3.00;;;;;;;-145.41;100.00;58600.66;4961952;28;20493;-72
2023/04/17 07:39:11;;;;;;;5.22;3.42;;;;;;;-145.41;100.00;58600.66;4960627;28;20039;-73
2023/04/17 07:41:37;;;;;;;6.90;3.40;;;;;;;-145.41;100.00;58600.66;4969890;28;20035;-72
2023/04/17 07:44:04;;;;;;;4.95;3.38;;;;;;;-145.41;100.00;58600.66;4961932;28;20506;-72
2023/04/17 07:46:30;;;;;;;7.10;3.30;;;;;;;-145.41;100.00;58600.66;4952707;28;20489;-73
2023/04/17 07:48:55;;;;;;;6.18;3.90;;;;;;;-145.41;100.00;58600.66;4962793;28;20039;-72
2023/04/17 07:51:20;;;;;;;5.72;3.50;;;;;;;-145.41;100.00;58600.66;4963447;28;20042;-72
2023/04/17 07:53:46;;;;;;;5.25;3.33;;;;;;;-145.41;100.00;58600.66;4960918;28;20042;-73
2023/04/17 07:56:12;;;;;;;4.82;3.17;;;;;;;-145.41;100.00;58600.66;4963440;28;20046;-72
2023/04/17 07:58:37;;;;;;;6.43;3.70;;;;;;;-145.41;100.00;58600.66;4960317;28;20039;-72
2023/04/17 08:01:04;;;;;;;6.38;3.50;;;;;;;-145.41;100.00;58600.66;4969052;28;20453;-73
2023/04/17 08:03:30;;;;;;;7.25;3.58;;;;;;;-145.41;100.00;58600.66;4965136;28;20097;-73
2023/04/17 08:05:56;;;;;;;6.60;3.67;;;;;;;-145.41;100.00;58600.66;4964290;28;20038;-72
2023/04/17 08:08:22;;;;;;;5.28;3.35;;;;;;;-145.41;100.00;58600.66;4960832;28;20130;-73
2023/04/17 08:10:48;;;;;;;8.43;5.60;;;;;;;-145.41;100.00;58600.66;4963938;28;20129;-72
2023/04/17 08:13:13;;;;;;;5.60;3.92;;;;;;;-145.41;100.00;58600.66;4964637;28;20117;-72
2023/04/17 08:15:39;;;;;;;11.13;6.07;;;;;;;-145.41;100.00;58600.66;4960676;28;20047;-72
2023/04/17 08:18:06;;;;;;;9.85;6.88;;;;;;;-145.41;100.00;58600.66;4946470;28;20093;-72
2023/04/17 08:20:32;;;;;;;9.07;4.18;;;;;;;-145.41;100.00;58600.66;4961761;28;20043;-72
2023/04/17 08:22:58;;;;;;;5.40;3.58;;;;;;;-145.41;100.00;58600.66;4961612;28;20498;-72
2023/04/17 08:25:24;;;;;;;6.18;3.80;;;;;;;-145.41;100.00;58600.66;4954262;28;20039;-72
2023/04/17 08:27:50;;;;;;;5.80;3.38;;;;;;;-145.41;100.00;58600.66;4961214;28;20039;-73
2023/04/17 08:30:16;;;;;;;6.13;3.42;;;;;;;-145.41;100.00;58600.66;4958231;28;20035;-71
2023/04/17 08:32:45;;;;;;;5.72;3.78;;;;;;;-145.41;100.00;58600.66;4967134;28;20577;-73
2023/04/17 08:35:13;;;;;;;6.45;4.05;;;;;;;-145.41;100.00;58600.66;4959318;28;20057;-73
2023/04/17 08:37:39;;;;;;;5.72;3.40;;;;;;;-145.41;100.00;58600.66;4948835;28;20441;-72
2023/04/17 08:40:08;;;;;;;6.20;4.00;;;;;;;-145.41;100.00;58600.66;4963312;28;20455;-72
2023/04/17 08:42:35;;;;;;;5.75;3.63;;;;;;;-145.41;100.00;58600.66;4960662;28;20039;-72
2023/04/17 08:45:08;;;;;;;6.40;3.67;;;;;;;-145.41;100.00;58600.66;4962679;28;20053;-72
2023/04/17 08:47:33;;;;;;;7.10;3.90;;;;;;;-145.41;100.00;58600.66;4961759;28;20059;-72
2023/04/17 08:50:06;;;;;;;6.10;4.15;;;;;;;-145.41;100.00;58600.66;4963569;28;20125;-72
2023/04/17 08:52:31;;;;;;;5.88;3.80;;;;;;;-145.41;100.00;58600.66;4959862;28;20561;-72
2023/04/17 08:54:56;;;;;;;9.07;4.47;;;;;;;-145.41;100.00;58600.66;4963373;28;20119;-72
2023/04/17 08:57:22;;;;;;;10.07;5.75;;;;;;;-145.41;100.00;58600.66;4960122;28;20398;-72
2023/04/17 08:59:47;;;;;;;7.97;4.63;;;;;;;-145.41;100.00;58600.66;4967305;28;20588;-72
2023/04/17 09:02:12;;;;;;;9.73;4.40;;;;;;;-145.41;100.00;58600.66;4962530;28;20105;-73
2023/04/17 09:04:40;;;;;;;8.43;4.07;;;;;;;-145.41;100.00;58600.66;4963922;28;20035;-72
2023/04/17 09:07:07;;;;;;;6.55;4.10;;;;;;;-145.41;100.00;58600.66;4947581;28;20603;-72
2023/04/17 09:09:49;;;;;;;10.70;4.43;;;;;;;-145.41;100.00;58600.66;4963763;28;20078;-72
2023/04/17 09:12:15;;;;;;;6.32;4.38;;;;;;;-145.41;100.00;58600.66;4961432;28;20078;-71
2023/04/17 09:14:40;;;;;;;7.32;4.68;;;;;;;-145.41;100.00;58600.66;4967194;28;20042;-72
2023/04/17 09:17:06;;;;;;;8.10;5.05;;;;;;;-145.41;100.00;58600.66;4966414;28;20038;-72
2023/04/17 09:19:31;;;;;;;6.65;4.28;;;;;;;-145.41;100.00;58600.66;4964547;28;20070;-72
2023/04/17 09:22:15;;;;;;;7.70;4.43;;;;;;;-145.41;100.00;58600.66;4962490;28;20050;-72
2023/04/17 09:24:41;;;;;;;7.10;5.20;;;;;;;-145.41;100.00;58600.66;4967294;28;20034;-72
2023/04/17 09:27:21;;;;;;;6.28;4.40;;;;;;;-145.41;100.00;58600.66;4959868;28;20039;-72
2023/04/17 09:30:05;;;;;;;9.43;4.10;;;;;;;-145.41;100.00;58600.66;4963230;28;20039;-73
2023/04/17 09:32:32;;;;;;;7.30;4.70;;;;;;;-145.41;100.00;58600.66;4961201;28;20039;-71
2023/04/17 09:35:02;;;;;;;8.23;5.05;;;;;;;-145.41;100.00;58600.66;4966341;28;20035;-72
2023/04/17 09:37:53;;;;;;;6.15;4.63;;;;;;;-145.41;100.00;58600.66;4966550;28;20063;-72
2023/04/17 09:40:22;;;;;;;10.30;4.68;;;;;;;-145.41;100.00;58600.66;4944608;28;20039;-72
2023/04/17 09:43:01;;;;;;;7.65;4.82;;;;;;;-145.41;100.00;58600.66;4967175;28;20035;-72
2023/04/17 09:45:35;;;;;;;7.15;4.68;;;;;;;-145.41;100.00;58600.66;4964273;28;20035;-72
2023/04/17 09:48:05;;;;;;;7.63;4.78;;;;;;;-145.41;100.00;58600.66;4961290;28;20035;-72
2023/04/17 09:50:32;;;;;;;8.95;4.93;;;;;;;-145.41;100.00;58600.66;4963505;28;20034;-73
2023/04/17 09:52:57;;;;;;;7.05;4.43;;;;;;;-145.41;100.00;58600.66;4963165;28;20105;-73
2023/04/17 09:55:25;;;;;;;6.88;4.53;;;;;;;-145.41;100.00;58600.66;4965235;28;20055;-72
2023/04/17 09:57:53;;;;;;;6.80;3.83;;;;;;;-145.41;100.00;58600.66;4967023;28;20035;-72
2023/04/17 10:00:19;;;;;;;7.80;4.80;;;;;;;-145.41;100.00;58600.66;4965475;28;20410;-72
2023/04/17 10:02:47;;;;;;;7.07;4.75;;;;;;;-145.41;100.00;58600.66;4963469;28;20039;-72
2023/04/17 10:05:13;;;;;;;7.35;4.75;;;;;;;-145.41;100.00;58600.66;4961886;28;20054;-73
2023/04/17 10:07:39;;;;;;;7.65;4.95;;;;;;;-145.41;100.00;58600.66;4970400;28;20050;-72
2023/04/17 10:10:09;;;;;;;7.93;5.78;;;;;;;-145.41;100.00;58600.66;4966246;28;20039;-72
2023/04/17 10:12:37;;;;;;;6.95;4.90;;;;;;;-145.41;100.00;58600.66;4965902;28;20062;-72
2023/04/17 10:15:04;;;;;;;8.00;5.68;;;;;;;-145.41;100.00;58600.66;4963809;28;20098;-72
2023/04/17 10:17:31;;;;;;;7.82;5.78;;;;;;;-145.41;100.00;58600.66;4961246;28;20406;-72
2023/04/17 10:20:19;;;;;;;9.23;5.03;;;;;;;-145.41;100.00;58600.66;4972155;28;20093;-72
2023/04/17 10:22:53;;;;;;;8.85;5.50;;;;;;;-145.41;100.00;58600.66;4962206;28;20051;-72
2023/04/17 10:25:21;;;;;;;10.02;5.15;;;;;;;-145.41;100.00;58600.66;4964457;28;20031;-72
2023/04/17 10:27:53;;;;;;;9.18;4.93;;;;;;;-145.41;100.00;58600.66;4960822;28;20077;-72
2023/04/17 10:30:21;;;;;;;7.47;5.25;;;;;;;-145.41;100.00;58600.66;4959507;28;20034;-72
2023/04/17 10:33:14;;;;;;;8.55;5.10;;;;;;;-145.41;100.00;58600.66;4943663;28;20115;-71
2023/04/17 10:35:40;;;;;;;8.95;4.97;;;;;;;-145.41;100.00;58600.66;4957004;28;20046;-73
2023/04/17 10:38:07;;;;;;;8.02;5.03;;;;;;;-145.41;100.00;58600.66;4961994;28;20031;-72
2023/04/17 10:40:36;;;;;;;7.93;5.13;;;;;;;-145.41;100.00;58600.66;4965388;28;20031;-72
2023/04/17 10:43:13;;;;;;;8.65;5.28;;;;;;;-145.41;100.00;58600.66;4963254;28;20561;-72
2023/04/17 10:45:54;;;;;;;8.65;5.38;;;;;;;-145.41;100.00;58600.66;4963070;28;20038;-72
2023/04/17 10:48:45;;;;;;;7.80;5.03;;;;;;;-145.41;100.00;58600.66;4943716;28;20030;-72
2023/04/17 10:51:23;;;;;;;10.30;5.25;;;;;;;-145.41;100.00;58600.66;4958832;28;20042;-72
2023/04/17 10:53:55;;;;;;;16.48;12.32;;;;;;;-145.41;100.00;58600.66;4963524;28;20042;-72
2023/04/17 10:56:25;;;;;;;17.52;13.07;;;;;;;-145.41;100.00;58600.66;4965036;28;20042;-72
2023/04/17 10:58:59;;;;;;;12.25;8.82;;;;;;;-145.41;100.00;58600.66;4959517;28;20027;-72
2023/04/17 11:01:28;;;;;;;15.82;11.18;;;;;;;-145.41;100.00;58600.66;4965094;28;20085;-72
2023/04/17 11:03:54;;;;;;;10.88;8.18;;;;;;;-145.41;100.00;58600.66;4963829;28;20039;-72
2023/04/17 11:06:19;;;;;;;7.65;5.40;;;;;;;-145.41;100.00;58600.66;4965800;28;20108;-72
2023/04/17 11:08:47;;;;;;;6.95;4.90;;;;;;;-145.41;100.00;58600.66;4963463;28;20043;-72
2023/04/17 11:11:14;;;;;;;7.93;5.35;;;;;;;-145.41;100.00;58600.66;4962144;28;20039;-72
2023/04/17 11:13:44;;;;;;;9.13;6.07;;;;;;;-145.41;100.00;58600.66;4963696;28;20038;-72